createdAt,value
2019-06-01T00:00:40.002Z,53.17
2019-06-01T00:01:46.846Z,53.23
2019-06-01T00:02:55.823Z,53.23
2019-06-01T00:03:57.897Z,53.24
2019-06-01T00:05:02.258Z,53.30
2019-06-01T00:06:08.267Z,53.30
2019-06-01T00:07:13.429Z,53.26
2019-06-01T00:08:18.184Z,53.38
2019-06-01T00:09:22.425Z,53.28
2019-06-01T00:10:27.299Z,53.22
2019-06-01T00:11:31.467Z,53.30
2019-06-01T00:12:39.207Z,53.25
2019-06-01T00:13:43.577Z,53.24
2019-06-01T00:14:48.345Z,53.34
2019-06-01T00:15:52.617Z,53.34
2019-06-01T00:16:57.397Z,53.40
2019-06-01T00:18:01.567Z,53.37
2019-06-01T00:19:06.353Z,53.48
2019-06-01T00:20:10.592Z,53.44
2019-06-01T00:21:15.602Z,53.54
2019-06-01T00:22:19.944Z,53.50
2019-06-01T00:23:24.771Z,53.59
2019-06-01T00:24:29.007Z,53.39
2019-06-01T00:25:33.800Z,53.39
2019-06-01T00:26:38.190Z,53.27
2019-06-01T00:27:44.706Z,53.28
2019-06-01T00:28:50.018Z,53.09
2019-06-01T00:29:55.764Z,53.07
2019-06-01T00:31:00.303Z,53.07
2019-06-01T00:32:05.521Z,53.40
2019-06-01T00:33:09.756Z,53.36
2019-06-01T00:34:14.591Z,53.53
2019-06-01T00:35:18.758Z,53.66
2019-06-01T00:36:23.508Z,53.87
2019-06-01T00:37:27.852Z,53.79
2019-06-01T00:38:32.653Z,53.81
2019-06-01T00:39:37.019Z,53.81
2019-06-01T00:40:41.776Z,53.83
2019-06-01T00:41:46.015Z,53.94
2019-06-01T00:42:50.855Z,53.79
2019-06-01T00:43:54.985Z,53.91
2019-06-01T00:45:00.708Z,53.86
2019-06-01T00:46:05.032Z,54.19
2019-06-01T00:47:09.856Z,54.16
2019-06-01T00:48:14.070Z,54.16
2019-06-01T00:49:18.851Z,54.10
2019-06-01T00:50:22.988Z,54.23
2019-06-01T00:51:27.830Z,54.25
2019-06-01T00:52:31.991Z,54.41
2019-06-01T00:53:36.815Z,54.43
2019-06-01T00:54:41.129Z,54.32
2019-06-01T00:55:46.053Z,54.26
2019-06-01T00:56:51.694Z,54.23
2019-06-01T00:57:56.548Z,54.42
2019-06-01T00:59:00.768Z,54.42
2019-06-01T01:00:08.455Z,54.48
2019-06-01T01:01:12.911Z,54.33
2019-06-01T01:02:17.650Z,54.36
2019-06-01T01:03:21.962Z,54.42
2019-06-01T01:04:26.766Z,54.42
2019-06-01T01:05:30.919Z,54.44
2019-06-01T01:06:35.678Z,54.54
2019-06-01T01:07:39.841Z,54.64
2019-06-01T01:08:44.874Z,54.58
2019-06-01T01:09:49.096Z,54.48
2019-06-01T01:10:55.026Z,54.45
2019-06-01T01:11:59.431Z,54.47
2019-06-01T01:13:05.315Z,54.67
2019-06-01T01:14:09.585Z,54.76
2019-06-01T01:15:14.563Z,54.86
2019-06-01T01:16:18.826Z,54.92
2019-06-01T01:17:23.654Z,54.96
2019-06-01T01:18:28.057Z,54.92
2019-06-01T01:19:32.824Z,54.87
2019-06-01T01:20:38.032Z,54.84
2019-06-01T01:21:42.821Z,54.93
2019-06-01T01:22:48.389Z,55.15
2019-06-01T01:23:54.737Z,55.09
2019-06-01T01:24:58.996Z,55.05
2019-06-01T01:26:03.867Z,54.94
2019-06-01T01:27:07.998Z,54.87
2019-06-01T01:28:12.852Z,54.84
2019-06-01T01:29:17.051Z,54.79
2019-06-01T01:30:21.824Z,54.86
2019-06-01T01:31:25.996Z,54.76
2019-06-01T01:32:32.116Z,54.72
2019-06-01T01:33:36.501Z,54.67
2019-06-01T01:34:41.615Z,54.82
2019-06-01T01:35:45.902Z,54.90
2019-06-01T01:36:52.571Z,54.93
2019-06-01T01:37:58.748Z,54.86
2019-06-01T01:39:03.672Z,54.87
2019-06-01T01:40:08.216Z,54.98
2019-06-01T01:41:13.053Z,55.07
2019-06-01T01:42:17.203Z,54.93
2019-06-01T01:43:22.176Z,55.02
2019-06-01T01:44:26.348Z,54.99
2019-06-01T01:45:31.203Z,55.01
2019-06-01T01:46:35.440Z,55.04
2019-06-01T01:47:40.194Z,54.99
2019-06-01T01:48:44.379Z,55.01
2019-06-01T01:49:50.013Z,54.75
2019-06-01T01:50:54.513Z,54.87
2019-06-01T01:51:59.538Z,54.93
2019-06-01T01:53:04.380Z,55.07
2019-06-01T01:54:09.194Z,55.16
2019-06-01T01:55:13.458Z,55.11
2019-06-01T01:56:18.643Z,55.12
2019-06-01T01:57:22.868Z,55.00
2019-06-01T01:58:27.653Z,55.23
2019-06-01T01:59:31.821Z,55.08
2019-06-01T02:00:42.877Z,55.13
2019-06-01T02:01:47.060Z,55.12
2019-06-01T02:02:51.945Z,55.18
2019-06-01T02:03:57.418Z,55.18
2019-06-01T02:05:02.282Z,55.20
2019-06-01T02:06:07.361Z,55.32
2019-06-01T02:07:12.393Z,55.27
2019-06-01T02:08:16.557Z,55.12
2019-06-01T02:09:21.448Z,55.21
2019-06-01T02:10:25.684Z,55.27
2019-06-01T02:11:30.512Z,55.38
2019-06-01T02:12:34.708Z,55.39
2019-06-01T02:13:39.462Z,55.41
2019-06-01T02:14:43.858Z,55.38
2019-06-01T02:15:48.614Z,55.38
2019-06-01T02:16:53.950Z,55.45
2019-06-01T02:17:58.762Z,55.26
2019-06-01T02:19:02.934Z,55.28
2019-06-01T02:20:08.186Z,55.30
2019-06-01T02:21:12.418Z,55.26
2019-06-01T02:22:17.180Z,55.28
2019-06-01T02:23:21.484Z,55.35
2019-06-01T02:24:26.216Z,55.33
2019-06-01T02:25:31.057Z,55.38
2019-06-01T02:26:35.951Z,55.29
2019-06-01T02:27:40.265Z,55.37
2019-06-01T02:28:45.033Z,55.39
2019-06-01T02:29:49.210Z,55.54
2019-06-01T02:30:55.964Z,55.55
2019-06-01T02:32:01.767Z,55.50
2019-06-01T02:33:06.645Z,55.52
2019-06-01T02:34:10.782Z,55.50
2019-06-01T02:35:15.673Z,55.60
2019-06-01T02:36:20.016Z,55.64
2019-06-01T02:37:24.841Z,55.60
2019-06-01T02:38:29.087Z,55.58
2019-06-01T02:39:34.825Z,55.57
2019-06-01T02:40:38.988Z,55.46
2019-06-01T02:41:44.908Z,55.57
2019-06-01T02:42:49.624Z,55.49
2019-06-01T02:43:54.775Z,55.49
2019-06-01T02:44:59.256Z,55.74
2019-06-01T02:46:06.634Z,55.70
2019-06-01T02:47:10.095Z,55.77
2019-06-01T02:48:15.020Z,55.76
2019-06-01T02:49:19.255Z,55.84
2019-06-01T02:50:24.160Z,55.65
2019-06-01T02:51:28.447Z,55.68
2019-06-01T02:52:33.437Z,55.74
2019-06-01T02:53:37.679Z,55.75
2019-06-01T02:54:42.524Z,55.76
2019-06-01T02:55:46.684Z,55.82
2019-06-01T02:56:51.513Z,55.85
2019-06-01T02:57:56.017Z,56.05
2019-06-01T02:59:00.801Z,55.96
2019-06-01T03:00:09.412Z,56.12
2019-06-01T03:01:23.347Z,56.08
2019-06-01T03:02:27.521Z,56.09
2019-06-01T03:03:32.463Z,56.16
2019-06-01T03:04:36.715Z,56.11
2019-06-01T03:05:41.423Z,56.24
2019-06-01T03:06:45.670Z,56.23
2019-06-01T03:07:50.419Z,56.18
2019-06-01T03:08:54.707Z,56.32
2019-06-01T03:10:00.952Z,56.42
2019-06-01T03:11:06.084Z,56.37
2019-06-01T03:12:13.639Z,56.39
2019-06-01T03:13:17.813Z,56.52
2019-06-01T03:14:24.388Z,56.53
2019-06-01T03:15:28.711Z,56.74
2019-06-01T03:16:33.578Z,56.81
2019-06-01T03:17:37.918Z,56.85
2019-06-01T03:18:42.687Z,56.96
2019-06-01T03:19:46.963Z,56.92
2019-06-01T03:20:51.745Z,56.83
2019-06-01T03:21:57.452Z,56.92
2019-06-01T03:23:02.211Z,56.86
2019-06-01T03:24:08.419Z,56.91
2019-06-01T03:25:13.733Z,56.85
2019-06-01T03:26:17.892Z,56.83
2019-06-01T03:27:23.556Z,56.83
2019-06-01T03:28:27.753Z,56.83
2019-06-01T03:29:32.510Z,56.79
2019-06-01T03:30:45.436Z,56.75
2019-06-01T03:31:49.048Z,56.93
2019-06-01T03:32:53.213Z,56.85
2019-06-01T03:33:59.146Z,56.83
2019-06-01T03:35:04.650Z,56.88
2019-06-01T03:36:09.452Z,56.90
2019-06-01T03:37:13.735Z,56.87
2019-06-01T03:38:18.494Z,56.85
2019-06-01T03:39:22.852Z,56.76
2019-06-01T03:40:27.709Z,56.81
2019-06-01T03:41:32.197Z,56.74
2019-06-01T03:42:37.208Z,56.68
2019-06-01T03:43:41.381Z,56.68
2019-06-01T03:44:46.404Z,56.66
2019-06-01T03:45:50.745Z,56.61
2019-06-01T03:46:55.703Z,56.65
2019-06-01T03:48:00.525Z,56.64
2019-06-01T03:49:05.733Z,56.66
2019-06-01T03:50:10.997Z,56.69
2019-06-01T03:51:15.808Z,56.73
2019-06-01T03:52:20.184Z,56.84
2019-06-01T03:53:24.940Z,56.88
2019-06-01T03:54:29.185Z,56.93
2019-06-01T03:55:34.085Z,56.92
2019-06-01T03:56:38.380Z,56.97
2019-06-01T03:57:43.247Z,57.19
2019-06-01T03:58:47.591Z,57.21
2019-06-01T03:59:52.468Z,57.23
2019-06-01T04:00:56.686Z,57.27
2019-06-01T04:02:01.553Z,57.21
2019-06-01T04:03:05.767Z,57.18
2019-06-01T04:04:11.283Z,57.19
2019-06-01T04:05:15.804Z,57.16
2019-06-01T04:06:20.695Z,57.34
2019-06-01T04:07:24.868Z,57.24
2019-06-01T04:08:29.492Z,57.22
2019-06-01T04:09:34.023Z,57.20
2019-06-01T04:10:38.777Z,57.16
2019-06-01T04:11:43.343Z,57.24
2019-06-01T04:12:48.116Z,57.19
2019-06-01T04:13:52.646Z,57.21
2019-06-01T04:14:57.602Z,57.37
2019-06-01T04:16:01.874Z,57.25
2019-06-01T04:17:08.021Z,57.25
2019-06-01T04:18:13.889Z,57.17
2019-06-01T04:19:19.025Z,57.12
2019-06-01T04:20:23.140Z,57.22
2019-06-01T04:21:28.050Z,57.22
2019-06-01T04:22:32.226Z,57.34
2019-06-01T04:23:37.186Z,57.35
2019-06-01T04:24:42.524Z,57.48
2019-06-01T04:25:47.261Z,57.51
2019-06-01T04:26:51.566Z,57.45
2019-06-01T04:27:56.348Z,57.56
2019-06-01T04:29:02.194Z,57.55
2019-06-01T04:30:09.431Z,57.59
2019-06-01T04:31:13.839Z,57.65
2019-06-01T04:32:18.596Z,57.56
2019-06-01T04:33:22.844Z,57.75
2019-06-01T04:34:27.602Z,57.85
2019-06-01T04:35:31.984Z,57.77
2019-06-01T04:36:37.771Z,57.83
2019-06-01T04:37:41.944Z,58.02
2019-06-01T04:38:46.701Z,58.00
2019-06-01T04:39:51.080Z,57.90
2019-06-01T04:40:56.001Z,57.91
2019-06-01T04:42:00.945Z,58.15
2019-06-01T04:43:05.810Z,58.11
2019-06-01T04:44:10.154Z,58.05
2019-06-01T04:45:14.898Z,58.61
2019-06-01T04:46:19.565Z,58.39
2019-06-01T04:47:24.380Z,58.73
2019-06-01T04:48:28.665Z,58.39
2019-06-01T04:49:33.420Z,58.16
2019-06-01T04:50:37.594Z,58.09
2019-06-01T04:51:42.652Z,58.14
2019-06-01T04:52:46.892Z,58.05
2019-06-01T04:53:51.773Z,58.04
2019-06-01T04:54:55.940Z,58.08
2019-06-01T04:56:00.806Z,58.20
2019-06-01T04:57:05.232Z,58.17
2019-06-01T04:58:11.078Z,58.31
2019-06-01T04:59:16.723Z,58.56
2019-06-01T05:00:27.244Z,58.86
2019-06-01T05:01:27.687Z,59.06
2019-06-01T05:02:32.598Z,59.30
2019-06-01T05:03:36.848Z,58.99
2019-06-01T05:04:43.541Z,58.96
2019-06-01T05:05:47.581Z,59.13
2019-06-01T05:06:52.649Z,59.39
2019-06-01T05:07:56.858Z,59.16
2019-06-01T05:09:01.617Z,59.26
2019-06-01T05:10:07.768Z,59.38
2019-06-01T05:11:13.575Z,59.23
2019-06-01T05:12:17.876Z,59.14
2019-06-01T05:13:23.712Z,59.16
2019-06-01T05:14:28.252Z,59.11
2019-06-01T05:15:33.115Z,59.14
2019-06-01T05:16:37.492Z,59.12
2019-06-01T05:17:42.311Z,59.07
2019-06-01T05:18:46.553Z,59.04
2019-06-01T05:19:51.673Z,58.97
2019-06-01T05:20:55.891Z,58.92
2019-06-01T05:22:00.871Z,58.69
2019-06-01T05:23:06.496Z,58.52
2019-06-01T05:24:12.736Z,58.42
2019-06-01T05:25:17.261Z,58.23
2019-06-01T05:26:22.024Z,58.21
2019-06-01T05:27:26.197Z,58.27
2019-06-01T05:28:30.948Z,58.24
2019-06-01T05:29:35.469Z,58.21
2019-06-01T05:30:40.284Z,58.18
2019-06-01T05:31:44.784Z,58.24
2019-06-01T05:32:49.724Z,58.22
2019-06-01T05:33:53.868Z,58.28
2019-06-01T05:34:58.746Z,58.30
2019-06-01T05:36:02.920Z,58.41
2019-06-01T05:37:08.497Z,58.41
2019-06-01T05:38:12.694Z,58.62
2019-06-01T05:39:18.698Z,58.68
2019-06-01T05:40:23.144Z,58.71
2019-06-01T05:41:27.900Z,58.77
2019-06-01T05:42:32.096Z,58.48
2019-06-01T05:43:38.470Z,58.53
2019-06-01T05:44:42.700Z,58.40
2019-06-01T05:45:47.460Z,58.40
2019-06-01T05:46:52.856Z,58.36
2019-06-01T05:47:57.619Z,58.34
2019-06-01T05:49:01.925Z,58.24
2019-06-01T05:50:10.595Z,58.09
2019-06-01T05:51:16.827Z,57.60
2019-06-01T05:52:22.960Z,57.37
2019-06-01T05:53:27.210Z,57.44
2019-06-01T05:54:33.486Z,57.52
2019-06-01T05:55:37.852Z,57.66
2019-06-01T05:56:42.726Z,57.39
2019-06-01T05:57:46.902Z,57.21
2019-06-01T05:58:51.786Z,57.21
2019-06-01T05:59:56.149Z,57.30
2019-06-01T06:01:00.930Z,57.44
2019-06-01T06:02:05.232Z,57.58
2019-06-01T06:03:14.351Z,57.50
2019-06-01T06:04:17.531Z,57.15
2019-06-01T06:05:23.891Z,57.41
2019-06-01T06:06:28.264Z,57.69
2019-06-01T06:07:33.032Z,57.36
2019-06-01T06:08:37.444Z,57.39
2019-06-01T06:09:42.360Z,57.19
2019-06-01T06:10:47.424Z,57.05
2019-06-01T06:11:54.037Z,57.01
2019-06-01T06:12:58.376Z,56.85
2019-06-01T06:14:03.132Z,57.02
2019-06-01T06:15:11.451Z,57.02
2019-06-01T06:16:17.959Z,57.01
2019-06-01T06:17:24.291Z,56.94
2019-06-01T06:18:29.270Z,56.84
2019-06-01T06:19:33.455Z,57.03
2019-06-01T06:20:38.257Z,56.94
2019-06-01T06:21:42.477Z,57.17
2019-06-01T06:22:47.404Z,57.23
2019-06-01T06:23:51.708Z,57.30
2019-06-01T06:24:56.637Z,57.58
2019-06-01T06:26:02.274Z,57.57
2019-06-01T06:27:07.030Z,56.91
2019-06-01T06:28:12.468Z,56.87
2019-06-01T06:29:17.351Z,56.63
2019-06-01T06:30:23.029Z,56.29
2019-06-01T06:31:27.800Z,56.73
2019-06-01T06:32:31.976Z,56.37
2019-06-01T06:33:37.083Z,56.72
2019-06-01T06:34:41.391Z,56.81
2019-06-01T06:35:46.248Z,56.61
2019-06-01T06:36:50.471Z,56.46
2019-06-01T06:37:56.075Z,56.29
2019-06-01T06:39:00.379Z,56.61
2019-06-01T06:40:07.265Z,56.63
2019-06-01T06:41:11.622Z,56.24
2019-06-01T06:42:16.450Z,56.25
2019-06-01T06:43:29.701Z,56.11
2019-06-01T06:44:27.284Z,56.10
2019-06-01T06:45:33.108Z,55.89
2019-06-01T06:46:37.969Z,55.60
2019-06-01T06:47:42.145Z,55.59
2019-06-01T06:48:46.981Z,55.59
2019-06-01T06:49:51.263Z,55.14
2019-06-01T06:50:56.004Z,55.44
2019-06-01T06:52:00.620Z,55.71
2019-06-01T06:53:05.481Z,56.07
2019-06-01T06:54:09.665Z,55.53
2019-06-01T06:55:15.646Z,55.39
2019-06-01T06:56:20.000Z,55.37
2019-06-01T06:57:26.163Z,55.36
2019-06-01T06:58:30.502Z,55.19
2019-06-01T06:59:35.324Z,54.23
2019-06-01T07:00:39.600Z,52.54
2019-06-01T07:01:44.427Z,53.31
2019-06-01T07:02:48.660Z,53.16
2019-06-01T07:03:53.468Z,53.66
2019-06-01T07:04:57.664Z,53.80
2019-06-01T07:06:02.423Z,54.24
2019-06-01T07:07:06.810Z,54.47
2019-06-01T07:08:11.614Z,54.30
2019-06-01T07:09:15.779Z,53.72
2019-06-01T07:10:20.566Z,53.99
2019-06-01T07:11:25.336Z,54.28
2019-06-01T07:12:33.363Z,54.22
2019-06-01T07:13:37.596Z,54.59
2019-06-01T07:14:42.352Z,53.95
2019-06-01T07:15:46.543Z,54.30
2019-06-01T07:16:51.526Z,54.15
2019-06-01T07:17:55.699Z,54.77
2019-06-01T07:19:00.452Z,54.58
2019-06-01T07:20:06.536Z,54.03
2019-06-01T07:21:11.292Z,54.23
2019-06-01T07:22:17.044Z,53.75
2019-06-01T07:23:22.027Z,54.22
2019-06-01T07:24:26.217Z,54.09
2019-06-01T07:25:30.972Z,54.01
2019-06-01T07:26:35.173Z,52.65
2019-06-01T07:27:40.219Z,52.13
2019-06-01T07:28:45.585Z,53.25
2019-06-01T07:29:50.570Z,53.23
2019-06-01T07:30:54.716Z,52.82
2019-06-01T07:31:59.472Z,52.59
2019-06-01T07:33:04.787Z,52.64
2019-06-01T07:34:09.583Z,52.06
2019-06-01T07:35:14.520Z,51.79
2019-06-01T07:36:20.267Z,51.99
2019-06-01T07:37:24.599Z,51.78
2019-06-01T07:38:29.593Z,51.24
2019-06-01T07:39:33.877Z,51.63
2019-06-01T07:40:38.934Z,52.12
2019-06-01T07:41:43.471Z,52.35
2019-06-01T07:42:48.264Z,51.75
2019-06-01T07:43:52.680Z,51.22
2019-06-01T07:44:57.477Z,51.60
2019-06-01T07:46:01.648Z,51.22
2019-06-01T07:47:06.555Z,51.10
2019-06-01T07:48:10.720Z,51.48
2019-06-01T07:49:16.592Z,51.33
2019-06-01T07:50:21.893Z,51.05
2019-06-01T07:51:27.419Z,50.43
2019-06-01T07:52:32.418Z,50.77
2019-06-01T07:53:37.547Z,51.09
2019-06-01T07:54:41.726Z,51.01
2019-06-01T07:55:46.610Z,51.38
2019-06-01T07:56:51.731Z,50.86
2019-06-01T07:57:56.480Z,50.59
2019-06-01T07:59:00.744Z,50.28
2019-06-01T08:00:07.930Z,50.76
2019-06-01T08:01:13.791Z,51.02
2019-06-01T08:02:18.682Z,51.11
2019-06-01T08:03:26.020Z,50.76
2019-06-01T08:04:31.767Z,49.92
2019-06-01T08:05:35.221Z,50.12
2019-06-01T08:06:46.557Z,50.13
2019-06-01T08:07:54.515Z,50.07
2019-06-01T08:09:02.932Z,49.84
2019-06-01T08:10:10.168Z,49.62
2019-06-01T08:11:17.684Z,49.67
2019-06-01T08:12:25.209Z,49.76
2019-06-01T08:13:35.463Z,50.14
2019-06-01T08:14:39.870Z,50.31
2019-06-01T08:15:45.826Z,49.46
2019-06-01T08:16:52.090Z,50.03
2019-06-01T08:17:57.276Z,48.62
2019-06-01T08:19:01.944Z,49.29
2019-06-01T08:20:07.770Z,48.91
2019-06-01T08:21:12.152Z,48.96
2019-06-01T08:22:16.972Z,48.57
2019-06-01T08:23:21.876Z,49.01
2019-06-01T08:24:26.796Z,49.16
2019-06-01T08:25:32.795Z,48.49
2019-06-01T08:26:39.692Z,48.41
2019-06-01T08:27:44.020Z,49.29
2019-06-01T08:28:48.956Z,49.19
2019-06-01T08:29:53.145Z,49.58
2019-06-01T08:30:57.998Z,49.42
2019-06-01T08:32:02.152Z,48.13
2019-06-01T08:33:07.096Z,48.13
2019-06-01T08:34:11.505Z,48.91
2019-06-01T08:35:16.552Z,48.93
2019-06-01T08:36:20.930Z,49.34
2019-06-01T08:37:25.618Z,49.37
2019-06-01T08:38:29.880Z,49.01
2019-06-01T08:39:34.661Z,49.05
2019-06-01T08:40:38.831Z,48.10
2019-06-01T08:41:43.675Z,46.82
2019-06-01T08:42:47.895Z,46.64
2019-06-01T08:43:52.715Z,46.86
2019-06-01T08:44:56.927Z,46.30
2019-06-01T08:46:01.709Z,45.95
2019-06-01T08:47:05.967Z,47.18
2019-06-01T08:48:10.700Z,48.08
2019-06-01T08:49:14.946Z,48.36
2019-06-01T08:50:20.274Z,48.70
2019-06-01T08:51:26.362Z,48.30
2019-06-01T08:52:32.192Z,47.78
2019-06-01T08:53:36.634Z,47.59
2019-06-01T08:54:41.391Z,47.66
2019-06-01T08:55:45.628Z,47.04
2019-06-01T08:56:50.222Z,46.84
2019-06-01T08:57:54.469Z,46.62
2019-06-01T08:58:59.210Z,47.35
2019-06-01T09:00:05.844Z,47.24
2019-06-01T09:01:10.702Z,46.98
2019-06-01T09:02:15.837Z,46.66
2019-06-01T09:03:20.596Z,46.92
2019-06-01T09:04:24.828Z,46.92
2019-06-01T09:05:31.223Z,46.91
2019-06-01T09:06:35.766Z,46.57
2019-06-01T09:07:40.600Z,46.09
2019-06-01T09:08:44.766Z,45.60
2019-06-01T09:09:49.577Z,44.63
2019-06-01T09:10:53.748Z,45.36
2019-06-01T09:11:58.683Z,45.19
2019-06-01T09:13:02.858Z,45.13
2019-06-01T09:14:07.673Z,45.08
2019-06-01T09:15:12.135Z,45.41
2019-06-01T09:16:17.108Z,45.31
2019-06-01T09:17:21.614Z,45.27
2019-06-01T09:18:27.537Z,44.97
2019-06-01T09:19:33.565Z,45.36
2019-06-01T09:20:39.403Z,44.78
2019-06-01T09:21:43.966Z,43.70
2019-06-01T09:22:48.775Z,43.60
2019-06-01T09:23:53.079Z,43.84
2019-06-01T09:24:57.911Z,42.58
2019-06-01T09:26:02.080Z,42.24
2019-06-01T09:27:06.910Z,42.71
2019-06-01T09:28:11.120Z,43.03
2019-06-01T09:29:15.880Z,43.43
2019-06-01T09:30:20.576Z,43.64
2019-06-01T09:31:26.284Z,42.54
2019-06-01T09:32:34.309Z,43.46
2019-06-01T09:33:38.264Z,43.02
2019-06-01T09:34:42.525Z,43.04
2019-06-01T09:35:55.528Z,43.05
2019-06-01T09:36:55.536Z,41.85
2019-06-01T09:38:00.645Z,42.14
2019-06-01T09:39:07.403Z,42.43
2019-06-01T09:40:12.515Z,42.67
2019-06-01T09:41:16.748Z,43.14
2019-06-01T09:42:21.688Z,42.67
2019-06-01T09:43:26.535Z,42.66
2019-06-01T09:44:31.980Z,42.32
2019-06-01T09:45:36.777Z,42.43
2019-06-01T09:46:41.537Z,42.21
2019-06-01T09:47:46.115Z,42.02
2019-06-01T09:48:51.199Z,41.64
2019-06-01T09:49:55.512Z,41.88
2019-06-01T09:51:00.277Z,42.20
2019-06-01T09:52:04.764Z,41.82
2019-06-01T09:53:09.515Z,41.70
2019-06-01T09:54:13.750Z,41.54
2019-06-01T09:55:18.552Z,41.15
2019-06-01T09:56:22.724Z,41.29
2019-06-01T09:57:27.722Z,40.54
2019-06-01T09:58:32.297Z,40.54
2019-06-01T09:59:38.165Z,39.58
2019-06-01T10:00:43.958Z,39.25
2019-06-01T10:01:48.977Z,39.79
2019-06-01T10:02:53.240Z,39.94
2019-06-01T10:03:58.057Z,40.42
2019-06-01T10:05:02.345Z,40.52
2019-06-01T10:06:08.192Z,40.04
2019-06-01T10:07:12.546Z,39.97
2019-06-01T10:08:17.347Z,39.79
2019-06-01T10:09:21.764Z,39.94
2019-06-01T10:10:26.521Z,39.67
2019-06-01T10:11:32.496Z,38.89
2019-06-01T10:12:38.182Z,39.46
2019-06-01T10:13:42.739Z,39.14
2019-06-01T10:14:48.504Z,39.32
2019-06-01T10:15:52.676Z,39.80
2019-06-01T10:16:57.485Z,39.58
2019-06-01T10:18:01.652Z,39.07
2019-06-01T10:19:06.625Z,39.02
2019-06-01T10:20:11.813Z,38.52
2019-06-01T10:21:16.571Z,39.18
2019-06-01T10:22:20.757Z,39.03
2019-06-01T10:23:25.511Z,39.11
2019-06-01T10:24:31.088Z,38.50
2019-06-01T10:25:36.470Z,38.00
2019-06-01T10:26:41.860Z,37.52
2019-06-01T10:27:46.657Z,37.67
2019-06-01T10:28:50.902Z,37.91
2019-06-01T10:29:55.685Z,37.02
2019-06-01T10:30:59.935Z,35.63
2019-06-01T10:32:05.160Z,34.73
2019-06-01T10:33:09.315Z,34.97
2019-06-01T10:34:14.077Z,36.29
2019-06-01T10:35:18.563Z,37.06
2019-06-01T10:36:23.380Z,37.33
2019-06-01T10:37:27.726Z,36.44
2019-06-01T10:38:33.398Z,36.95
2019-06-01T10:39:37.674Z,36.82
2019-06-01T10:40:42.465Z,36.08
2019-06-01T10:41:46.712Z,36.37
2019-06-01T10:42:51.526Z,35.92
2019-06-01T10:43:55.687Z,35.45
2019-06-01T10:45:00.452Z,36.09
2019-06-01T10:46:04.984Z,36.55
2019-06-01T10:47:09.735Z,36.45
2019-06-01T10:48:13.903Z,36.53
2019-06-01T10:49:19.666Z,35.52
2019-06-01T10:50:23.929Z,36.07
2019-06-01T10:51:28.684Z,36.54
2019-06-01T10:52:36.243Z,36.53
2019-06-01T10:53:42.443Z,36.16
2019-06-01T10:54:46.920Z,35.71
2019-06-01T10:55:51.677Z,36.45
2019-06-01T10:56:55.873Z,36.19
2019-06-01T10:58:00.636Z,35.72
2019-06-01T10:59:05.177Z,35.46
2019-06-01T11:00:13.207Z,34.04
2019-06-01T11:01:17.376Z,34.10
2019-06-01T11:02:22.250Z,33.84
2019-06-01T11:03:26.420Z,34.14
2019-06-01T11:04:32.689Z,33.87
2019-06-01T11:05:36.920Z,33.92
2019-06-01T11:06:46.476Z,33.11
2019-06-01T11:07:47.751Z,33.59
2019-06-01T11:08:52.506Z,33.10
2019-06-01T11:09:56.695Z,32.88
2019-06-01T11:11:01.447Z,33.74
2019-06-01T11:12:05.620Z,34.14
2019-06-01T11:13:10.407Z,34.08
2019-06-01T11:14:14.572Z,32.28
2019-06-01T11:15:19.408Z,32.42
2019-06-01T11:16:23.586Z,33.46
2019-06-01T11:17:28.363Z,33.49
2019-06-01T11:18:33.200Z,32.52
2019-06-01T11:19:39.372Z,32.82
2019-06-01T11:20:43.694Z,33.28
2019-06-01T11:21:48.476Z,33.03
2019-06-01T11:22:52.649Z,33.16
2019-06-01T11:23:57.404Z,32.13
2019-06-01T11:25:01.627Z,32.39
2019-06-01T11:26:06.424Z,32.85
2019-06-01T11:27:10.596Z,32.98
2019-06-01T11:28:15.387Z,31.99
2019-06-01T11:29:19.927Z,33.12
2019-06-01T11:30:24.736Z,32.33
2019-06-01T11:31:28.905Z,31.91
2019-06-01T11:32:39.475Z,32.55
2019-06-01T11:33:42.781Z,32.62
2019-06-01T11:34:47.658Z,33.43
2019-06-01T11:35:51.949Z,32.67
2019-06-01T11:37:04.965Z,32.41
2019-06-01T11:38:02.812Z,33.04
2019-06-01T11:39:08.060Z,33.19
2019-06-01T11:40:12.299Z,33.47
2019-06-01T11:41:18.706Z,33.34
2019-06-01T11:42:23.074Z,33.36
2019-06-01T11:43:27.901Z,33.75
2019-06-01T11:44:32.180Z,32.87
2019-06-01T11:45:36.937Z,32.03
2019-06-01T11:46:41.404Z,31.24
2019-06-01T11:47:46.160Z,31.48
2019-06-01T11:48:50.520Z,30.94
2019-06-01T11:49:55.385Z,31.72
2019-06-01T11:50:59.597Z,32.31
2019-06-01T11:52:05.472Z,32.35
2019-06-01T11:53:09.724Z,31.63
2019-06-01T11:54:14.514Z,31.66
2019-06-01T11:55:18.770Z,31.57
2019-06-01T11:56:23.710Z,31.02
2019-06-01T11:57:28.089Z,30.89
2019-06-01T11:58:32.912Z,30.57
2019-06-01T11:59:37.475Z,31.07
2019-06-01T12:00:43.743Z,31.31
2019-06-01T12:01:47.923Z,31.39
2019-06-01T12:02:52.703Z,31.25
2019-06-01T12:03:56.899Z,31.49
2019-06-01T12:05:01.730Z,31.36
2019-06-01T12:06:06.393Z,31.52
2019-06-01T12:07:17.719Z,31.84
2019-06-01T12:08:17.120Z,31.25
2019-06-01T12:09:21.928Z,30.09
2019-06-01T12:10:26.355Z,30.15
2019-06-01T12:11:31.206Z,30.64
2019-06-01T12:12:36.012Z,30.70
2019-06-01T12:13:41.907Z,30.54
2019-06-01T12:14:46.858Z,30.36
2019-06-01T12:15:52.149Z,30.44
2019-06-01T12:16:56.484Z,31.05
2019-06-01T12:18:01.254Z,31.22
2019-06-01T12:19:05.540Z,31.35
2019-06-01T12:20:10.689Z,30.77
2019-06-01T12:21:15.832Z,30.90
2019-06-01T12:22:20.618Z,31.58
2019-06-01T12:23:24.847Z,31.82
2019-06-01T12:24:29.814Z,31.59
2019-06-01T12:25:34.007Z,31.04
2019-06-01T12:26:39.270Z,31.34
2019-06-01T12:27:43.639Z,31.50
2019-06-01T12:28:48.560Z,31.77
2019-06-01T12:29:52.947Z,31.44
2019-06-01T12:30:58.786Z,31.36
2019-06-01T12:32:03.073Z,30.76
2019-06-01T12:33:08.428Z,30.58
2019-06-01T12:34:12.684Z,30.75
2019-06-01T12:35:17.650Z,30.78
2019-06-01T12:36:21.804Z,30.58
2019-06-01T12:37:45.569Z,31.29
2019-06-01T12:38:34.225Z,31.12
2019-06-01T12:39:40.330Z,31.28
2019-06-01T12:40:45.326Z,31.20
2019-06-01T12:41:51.732Z,31.14
2019-06-01T12:42:56.067Z,30.95
2019-06-01T12:44:13.252Z,31.14
2019-06-01T12:45:22.232Z,31.46
2019-06-01T12:46:24.444Z,30.94
2019-06-01T12:47:28.623Z,30.34
2019-06-01T12:48:33.380Z,30.82
2019-06-01T12:49:37.552Z,30.27
2019-06-01T12:50:46.142Z,30.31
2019-06-01T12:51:49.028Z,29.81
2019-06-01T12:52:53.944Z,30.53
2019-06-01T12:53:58.140Z,30.39
2019-06-01T12:55:02.937Z,30.59
2019-06-01T12:56:07.129Z,30.86
2019-06-01T12:57:12.026Z,29.45
2019-06-01T12:58:16.198Z,29.65
2019-06-01T12:59:21.027Z,30.21
2019-06-01T13:00:25.337Z,30.57
2019-06-01T13:01:30.124Z,30.53
2019-06-01T13:02:34.419Z,30.62
2019-06-01T13:03:39.286Z,30.67
2019-06-01T13:04:44.827Z,30.91
2019-06-01T13:05:49.984Z,31.00
2019-06-01T13:06:54.309Z,30.36
2019-06-01T13:08:02.831Z,30.59
2019-06-01T13:09:07.509Z,30.54
2019-06-01T13:10:12.419Z,30.60
2019-06-01T13:11:16.924Z,29.96
2019-06-01T13:12:21.699Z,30.28
2019-06-01T13:13:25.946Z,30.57
2019-06-01T13:14:31.246Z,30.30
2019-06-01T13:15:35.489Z,29.48
2019-06-01T13:16:46.345Z,29.42
2019-06-01T13:17:47.226Z,29.37
2019-06-01T13:18:52.162Z,29.69
2019-06-01T13:19:56.384Z,30.08
2019-06-01T13:21:01.316Z,29.46
2019-06-01T13:22:05.755Z,30.04
2019-06-01T13:23:10.525Z,30.06
2019-06-01T13:24:15.616Z,29.98
2019-06-01T13:25:20.446Z,30.09
2019-06-01T13:26:25.159Z,29.99
2019-06-01T13:27:30.209Z,30.35
2019-06-01T13:28:37.960Z,30.56
2019-06-01T13:29:41.687Z,30.86
2019-06-01T13:30:47.366Z,31.06
2019-06-01T13:31:52.662Z,30.92
2019-06-01T13:32:57.033Z,31.01
2019-06-01T13:34:01.923Z,30.47
2019-06-01T13:35:07.265Z,30.26
2019-06-01T13:36:12.073Z,29.95
2019-06-01T13:37:16.270Z,30.07
2019-06-01T13:38:22.020Z,29.03
2019-06-01T13:39:30.314Z,28.97
2019-06-01T13:40:35.153Z,29.07
2019-06-01T13:41:39.329Z,28.69
2019-06-01T13:42:45.413Z,29.10
2019-06-01T13:43:49.598Z,29.14
2019-06-01T13:44:54.386Z,29.14
2019-06-01T13:45:58.711Z,29.37
2019-06-01T13:47:03.614Z,29.67
2019-06-01T13:48:07.881Z,29.69
2019-06-01T13:49:12.636Z,29.68
2019-06-01T13:50:17.501Z,29.48
2019-06-01T13:51:22.315Z,28.88
2019-06-01T13:52:26.552Z,28.79
2019-06-01T13:53:31.567Z,29.15
2019-06-01T13:54:40.026Z,29.50
2019-06-01T13:55:44.056Z,29.70
2019-06-01T13:56:48.814Z,29.60